logo
Rechercher aéroport 
image banner adimage banner adimage banner ad
image banner ad

ED2373 - Chemnitz Klinikum

Situé à , Germany

ICAO - , IATA -

Données fournies par Airmate  

Information générale

Coordonnées: N50°50'45" E12°53'7"
Élévation : 1141 feet MSL.
 
Voir autres Aéroports à Saxony

Données opérationnelles

Special qualification required
Heure actuelle UTC:
Heure actuelle locale:
Météo à : EDAC - Leipzig-Altenburg Airport ( 31 km )
TAF: TAF EDAC 251400Z 2515/2524 VRB03KT CAVOK
Voir NOTAMs / SUP AIP / TFR affectant cet aéroport [VIEW]
Fréquences de communication: [VIEW]

Pistes:

Coordonnées de l'aéroport

Adresse: Germany

Vue satellite de ED2373